BIENTÔT MET'MAP
version 2.0 !

Prévue avant fin octobre,
la nouvelle version sera
plus belle, plus complète
et hébergée sur un serveur
3 fois plus puissant...
et toujours gratuite !


Pas compatible ?
Essayez la version Mobile !

SE CONNECTER : | S'inscrire | Disclaimer | Découvrir Orbifly |
Code OACI :

TAF - EGMC Southend - 25 Feb 2020 17:02 UTC
Data Sources :     NOAA   


- Altitude de l'aérodrome : 49 ft
- Code IATA : SEN
- Pas de NOTAMs connus.


EGMC - Southend

Dernier METAR connu : 2015/08/11 07:50 EGMC 110750Z VRB03KT 9999 FEW045 16/09 Q1019
TAF TAF EGMC
Valide du 25 à 15h jusqu'au 26 à 00h UTC


251359Z 2515/2524 25012KT 9999 SCT040
TEMPO 2515/2524 26016G26KT
PROB30
TEMPO 2515/2517 6000 SHRA SHGS
TEMPO 2517/2524 6000 SHRA SHGS
PROB40
TEMPO 2517/2519 3000 +SHRAGS BKN014CB
PROB30
TEMPO 2519/2524 2000 SHRASN BKN010CB

Source NOAA


MET'MAP, la Météo Aéronautique d'un coup d'oeil ! - Copyright ORBIFLY Décembre 2007

Développement & Programmation : Alexandra Zaïnal
Co-Développement : Marc-Olivier Méhu
Soutien technique & logistique : Manuel Goepfert
Conception & Financement : Baudouin d'Aumeries